الصفحة الرئيسية
METAR-TAF:

METAR-TAF

مطار :

فولغوغراد, روسيا

دائرة عرض: 48-47N, خط طول: 044-22E, ارتفاع: 145 متر

مراقبة الطقس الحالي

تاريخ ووقت الإصدار 39 دقيقة قبل الساعة 00:30UTC
ريح 4 عقدة من الغرب/الجنوب الغربي
درجة الحرارة 9°درجة مئوية
الرطوبة 81%
ضغط 1026 hPa
الرؤية 10 كم أو أكثر
الغيوم لا تقل 1500 م ولا وجود لمزنة ركامية السحاب الأسود

METAR: URWW 170030Z 25002MPS CAVOK 09/06 Q1026 R06/010070 NOSIG

زمن: 04:09 (01:09 UTC)

توقعات

تاريخ ووقت الإصدار 2ساعات و 10 دقيقة قبل الساعة 22:59UTC
التوقعات صالحة من17 الساعة 00 UTC إلى 17 الساعة 09 UTC
ريح 6 عقدة من الغرب تتزايد حتى 16 عقدة
الرؤية: 3100 متر
غيوم مفككة على ارتفاع 1100 قدم
غشاء
مؤقت
من 17 الساعة 00 UTC إلى 17 الساعة 06 UTC
ريح 6 عقدة من الغرب/الشمال الغربي تتزايد حتى 16 عقدة
الرؤية: 0300 متر
ملبد بالغيوم على ارتفاع 200 قدم
ضباب

TAF: URWW 162259Z 1700/1709 27003G08MPS 3100 BR BKN011 TEMPO 1700/1706 30003G08MPS 0300 FG OVC002

أرصاد الطقس والتوقعات من أكثر من 4000 مطار (تقارير الطقس للمطار METAR والتنبؤ بالطقس بالمطارTAF).

المحطات المتاحة هي النقط الصفراء والحمراء على الخريطة.

حرك المؤشر فوق النقطة لمعرفة اسم المحطة.

ثم انقر لمعرفة أرصاد وتوقعات الطقس.

لتغيير الخارطة: اضغط على الأزرار الخضراء مع رمز الصليب الأسود للتكبير. على الزر الأخضر مع شرطة للتصغير، أو على الأسهم الخضراء للخرائط المجاورة.


METAR-TAF: